sensor_id;sensor_type;location;lat;lon;timestamp;P1;durP1;ratioP1;P2;durP2;ratioP2
23722;SDS011;12042;52.136;5.584;2023-02-27T06:25:11;19.23;;;9.48;;
23722;SDS011;12042;52.136;5.584;2023-02-27T06:27:37;16.73;;;8.63;;
23722;SDS011;12042;52.136;5.584;2023-02-27T06:30:03;13.70;;;8.02;;
23722;SDS011;12042;52.136;5.584;2023-02-27T06:32:31;15.60;;;8.77;;
23722;SDS011;12042;52.136;5.584;2023-02-27T06:34:57;11.68;;;6.63;;
23722;SDS011;12042;52.136;5.584;2023-02-27T06:37:23;9.75;;;5.57;;
23722;SDS011;12042;52.136;5.584;2023-02-27T06:39:48;7.10;;;5.18;;
23722;SDS011;12042;52.136;5.584;2023-02-27T06:42:14;11.20;;;4.80;;
23722;SDS011;12042;52.136;5.584;2023-02-27T06:44:40;8.90;;;5.38;;
23722;SDS011;12042;52.136;5.584;2023-02-27T06:47:05;11.85;;;6.07;;
23722;SDS011;12042;52.136;5.584;2023-02-27T06:49:31;8.15;;;5.93;;
23722;SDS011;12042;52.136;5.584;2023-02-27T06:51:57;10.88;;;5.68;;
23722;SDS011;12042;52.136;5.584;2023-02-27T06:54:22;9.27;;;5.00;;
23722;SDS011;12042;52.136;5.584;2023-02-27T06:56:48;11.30;;;5.82;;
23722;SDS011;12042;52.136;5.584;2023-02-27T06:59:15;8.63;;;5.75;;
23722;SDS011;12042;52.136;5.584;2023-02-27T07:01:41;9.98;;;5.55;;
23722;SDS011;12042;52.136;5.584;2023-02-27T07:04:07;12.43;;;6.25;;
23722;SDS011;12042;52.136;5.584;2023-02-27T07:06:37;14.40;;;7.15;;
23722;SDS011;12042;52.136;5.584;2023-02-27T07:09:02;13.75;;;7.90;;
23722;SDS011;12042;52.136;5.584;2023-02-27T07:11:30;16.05;;;7.47;;
23722;SDS011;12042;52.136;5.584;2023-02-27T07:13:56;13.80;;;7.72;;
23722;SDS011;12042;52.136;5.584;2023-02-27T07:16:22;9.25;;;6.82;;
23722;SDS011;12042;52.136;5.584;2023-02-27T07:18:47;15.40;;;7.28;;
23722;SDS011;12042;52.136;5.584;2023-02-27T07:21:14;16.58;;;7.50;;
23722;SDS011;12042;52.136;5.584;2023-02-27T07:23:40;13.00;;;7.75;;
23722;SDS011;12042;52.136;5.584;2023-02-27T07:26:06;15.05;;;8.15;;
23722;SDS011;12042;52.136;5.584;2023-02-27T07:28:32;22.67;;;9.60;;
23722;SDS011;12042;52.136;5.584;2023-02-27T07:30:57;18.35;;;9.55;;
23722;SDS011;12042;52.136;5.584;2023-02-27T07:33:23;22.65;;;10.20;;
23722;SDS011;12042;52.136;5.584;2023-02-27T07:35:49;16.25;;;9.52;;
23722;SDS011;12042;52.136;5.584;2023-02-27T07:38:17;18.20;;;9.63;;
23722;SDS011;12042;52.136;5.584;2023-02-27T07:40:49;16.30;;;9.52;;
23722;SDS011;12042;52.136;5.584;2023-02-27T07:43:14;17.13;;;10.38;;
23722;SDS011;12042;52.136;5.584;2023-02-27T07:45:40;23.75;;;12.23;;
23722;SDS011;12042;52.136;5.584;2023-02-27T07:48:06;19.75;;;11.35;;
23722;SDS011;12042;52.136;5.584;2023-02-27T07:50:42;21.00;;;10.90;;
23722;SDS011;12042;52.136;5.584;2023-02-27T07:53:10;24.40;;;10.50;;
23722;SDS011;12042;52.136;5.584;2023-02-27T07:55:37;16.80;;;8.65;;
23722;SDS011;12042;52.136;5.584;2023-02-27T07:58:03;13.80;;;7.65;;
23722;SDS011;12042;52.136;5.584;2023-02-27T08:00:30;15.25;;;6.78;;
23722;SDS011;12042;52.136;5.584;2023-02-27T08:02:56;16.10;;;6.20;;
23722;SDS011;12042;52.136;5.584;2023-02-27T08:05:21;12.90;;;5.90;;
23722;SDS011;12042;52.136;5.584;2023-02-27T08:07:47;9.57;;;5.22;;
23722;SDS011;12042;52.136;5.584;2023-02-27T08:10:13;13.02;;;5.68;;
23722;SDS011;12042;52.136;5.584;2023-02-27T08:12:41;13.27;;;4.43;;
23722;SDS011;12042;52.136;5.584;2023-02-27T08:15:08;10.48;;;3.85;;
23722;SDS011;12042;52.136;5.584;2023-02-27T08:17:34;12.60;;;4.60;;
23722;SDS011;12042;52.136;5.584;2023-02-27T08:20:02;8.90;;;4.10;;
23722;SDS011;12042;52.136;5.584;2023-02-27T08:22:29;7.85;;;4.20;;
23722;SDS011;12042;52.136;5.584;2023-02-27T08:24:55;12.90;;;4.65;;
23722;SDS011;12042;52.136;5.584;2023-02-27T08:27:21;12.95;;;3.90;;
23722;SDS011;12042;52.136;5.584;2023-02-27T08:29:47;12.43;;;3.60;;
23722;SDS011;12042;52.136;5.584;2023-02-27T08:32:12;6.78;;;3.42;;
23722;SDS011;12042;52.136;5.584;2023-02-27T08:34:38;9.90;;;3.25;;
23722;SDS011;12042;52.136;5.584;2023-02-27T08:37:03;7.90;;;3.10;;
23722;SDS011;12042;52.136;5.584;2023-02-27T08:39:29;8.35;;;3.78;;
23722;SDS011;12042;52.136;5.584;2023-02-27T08:41:54;9.02;;;3.33;;
23722;SDS011;12042;52.136;5.584;2023-02-27T08:44:20;4.35;;;3.00;;
23722;SDS011;12042;52.136;5.584;2023-02-27T08:46:46;9.70;;;3.55;;
23722;SDS011;12042;52.136;5.584;2023-02-27T08:49:11;4.60;;;3.15;;
23722;SDS011;12042;52.136;5.584;2023-02-27T08:51:37;8.55;;;3.40;;
23722;SDS011;12042;52.136;5.584;2023-02-27T08:54:03;18.83;;;3.63;;
23722;SDS011;12042;52.136;5.584;2023-02-27T08:56:29;7.90;;;4.57;;
23722;SDS011;12042;52.136;5.584;2023-02-27T08:58:54;7.50;;;3.50;;
23722;SDS011;12042;52.136;5.584;2023-02-27T09:01:20;4.95;;;2.88;;
23722;SDS011;12042;52.136;5.584;2023-02-27T09:03:46;8.50;;;3.05;;
23722;SDS011;12042;52.136;5.584;2023-02-27T09:06:11;8.43;;;3.00;;
23722;SDS011;12042;52.136;5.584;2023-02-27T09:08:37;10.90;;;3.55;;
23722;SDS011;12042;52.136;5.584;2023-02-27T09:11:03;11.65;;;3.28;;
23722;SDS011;12042;52.136;5.584;2023-02-27T09:13:29;4.57;;;2.53;;
23722;SDS011;12042;52.136;5.584;2023-02-27T09:15:55;4.55;;;2.47;;
23722;SDS011;12042;52.136;5.584;2023-02-27T09:18:20;2.47;;;2.00;;
23722;SDS011;12042;52.136;5.584;2023-02-27T09:20:49;6.25;;;2.10;;
23722;SDS011;12042;52.136;5.584;2023-02-27T09:23:15;6.40;;;1.70;;
23722;SDS011;12042;52.136;5.584;2023-02-27T09:25:41;11.27;;;1.83;;
23722;SDS011;12042;52.136;5.584;2023-02-27T09:28:07;5.43;;;1.63;;
23722;SDS011;12042;52.136;5.584;2023-02-27T09:30:32;9.38;;;1.92;;
23722;SDS011;12042;52.136;5.584;2023-02-27T09:32:58;4.78;;;1.80;;
23722;SDS011;12042;52.136;5.584;2023-02-27T09:35:24;4.93;;;1.80;;
23722;SDS011;12042;52.136;5.584;2023-02-27T09:37:50;8.18;;;2.03;;
23722;SDS011;12042;52.136;5.584;2023-02-27T09:42:51;4.65;;;2.15;;
23722;SDS011;12042;52.136;5.584;2023-02-27T09:45:25;4.72;;;1.75;;
23722;SDS011;12042;52.136;5.584;2023-02-27T09:47:55;3.97;;;1.45;;
23722;SDS011;12042;52.136;5.584;2023-02-27T09:50:38;4.80;;;1.70;;
23722;SDS011;12042;52.136;5.584;2023-02-27T09:53:17;3.40;;;1.20;;
23722;SDS011;12042;52.136;5.584;2023-02-27T09:55:51;4.18;;;1.50;;
23722;SDS011;12042;52.136;5.584;2023-02-27T09:58:24;2.00;;;1.40;;
23722;SDS011;12042;52.136;5.584;2023-02-27T10:06:21;5.85;;;1.52;;
23722;SDS011;12042;52.136;5.584;2023-02-27T10:09:15;2.75;;;1.52;;
23722;SDS011;12042;52.136;5.584;2023-02-27T10:14:25;3.67;;;1.25;;
23722;SDS011;12042;52.136;5.584;2023-02-27T10:17:00;4.50;;;1.40;;
23722;SDS011;12042;52.136;5.584;2023-02-27T10:19:30;1.42;;;1.00;;
23722;SDS011;12042;52.136;5.584;2023-02-27T10:22:00;1.77;;;0.95;;
23722;SDS011;12042;52.136;5.584;2023-02-27T10:24:35;3.65;;;1.77;;
23722;SDS011;12042;52.136;5.584;2023-02-27T10:27:10;2.33;;;1.00;;
23722;SDS011;12042;52.136;5.584;2023-02-27T10:29:41;4.60;;;0.98;;
23722;SDS011;12042;52.136;5.584;2023-02-27T10:34:43;1.50;;;0.82;;
23722;SDS011;12042;52.136;5.584;2023-02-27T10:37:15;2.53;;;0.88;;
23722;SDS011;12042;52.136;5.584;2023-02-27T10:39:46;1.85;;;1.10;;
23722;SDS011;12042;52.136;5.584;2023-02-27T10:42:15;1.65;;;0.90;;
23722;SDS011;12042;52.136;5.584;2023-02-27T10:44:42;2.25;;;1.05;;
23722;SDS011;12042;52.136;5.584;2023-02-27T10:47:12;3.10;;;1.00;;
23722;SDS011;12042;52.136;5.584;2023-02-27T10:49:39;3.55;;;2.17;;
23722;SDS011;12042;52.136;5.584;2023-02-27T10:52:11;1.98;;;1.08;;
23722;SDS011;12042;52.136;5.584;2023-02-27T10:54:38;1.92;;;1.00;;
23722;SDS011;12042;52.136;5.584;2023-02-27T10:57:06;3.00;;;1.20;;
23722;SDS011;12042;52.136;5.584;2023-02-27T10:59:58;1.83;;;0.90;;
23722;SDS011;12042;52.136;5.584;2023-02-27T11:02:35;2.55;;;0.80;;
23722;SDS011;12042;52.136;5.584;2023-02-27T11:05:04;1.63;;;0.80;;
23722;SDS011;12042;52.136;5.584;2023-02-27T11:07:41;0.98;;;0.90;;
23722;SDS011;12042;52.136;5.584;2023-02-27T11:12:39;2.42;;;1.10;;
23722;SDS011;12042;52.136;5.584;2023-02-27T11:17:38;0.65;;;0.60;;
23722;SDS011;12042;52.136;5.584;2023-02-27T11:20:30;1.75;;;0.50;;
23722;SDS011;12042;52.136;5.584;2023-02-27T11:23:01;2.30;;;0.70;;
23722;SDS011;12042;52.136;5.584;2023-02-27T11:25:37;2.13;;;0.80;;
23722;SDS011;12042;52.136;5.584;2023-02-27T11:28:13;3.05;;;0.70;;
23722;SDS011;12042;52.136;5.584;2023-02-27T11:30:43;0.75;;;0.70;;
23722;SDS011;12042;52.136;5.584;2023-02-27T11:33:19;1.45;;;0.77;;
23722;SDS011;12042;52.136;5.584;2023-02-27T11:35:49;0.88;;;0.70;;
23722;SDS011;12042;52.136;5.584;2023-02-27T11:38:20;1.00;;;0.82;;
23722;SDS011;12042;52.136;5.584;2023-02-27T11:40:52;1.75;;;0.68;;
23722;SDS011;12042;52.136;5.584;2023-02-27T11:46:04;2.05;;;0.40;;
23722;SDS011;12042;52.136;5.584;2023-02-27T11:48:35;0.70;;;0.70;;
23722;SDS011;12042;52.136;5.584;2023-02-27T11:57:19;0.77;;;0.50;;
23722;SDS011;12042;52.136;5.584;2023-02-27T12:00:24;2.00;;;0.73;;
23722;SDS011;12042;52.136;5.584;2023-02-27T12:05:38;1.75;;;0.70;;
23722;SDS011;12042;52.136;5.584;2023-02-27T12:10:44;0.47;;;0.40;;
23722;SDS011;12042;52.136;5.584;2023-02-27T12:13:35;1.40;;;0.40;;
23722;SDS011;12042;52.136;5.584;2023-02-27T12:21:44;0.77;;;0.57;;
23722;SDS011;12042;52.136;5.584;2023-02-27T12:26:45;1.35;;;0.50;;
23722;SDS011;12042;52.136;5.584;2023-02-27T12:29:19;0.50;;;0.50;;
23722;SDS011;12042;52.136;5.584;2023-02-27T12:32:02;0.80;;;0.60;;
23722;SDS011;12042;52.136;5.584;2023-02-27T12:37:10;0.60;;;0.50;;
23722;SDS011;12042;52.136;5.584;2023-02-27T12:39:38;1.02;;;0.52;;
23722;SDS011;12042;52.136;5.584;2023-02-27T12:47:32;1.33;;;1.23;;
23722;SDS011;12042;52.136;5.584;2023-02-27T12:50:05;3.28;;;0.80;;
23722;SDS011;12042;52.136;5.584;2023-02-27T12:53:00;0.80;;;0.80;;
23722;SDS011;12042;52.136;5.584;2023-02-27T12:55:43;1.77;;;1.10;;
23722;SDS011;12042;52.136;5.584;2023-02-27T12:58:29;1.63;;;1.00;;
23722;SDS011;12042;52.136;5.584;2023-02-27T13:01:00;1.10;;;0.95;;
23722;SDS011;12042;52.136;5.584;2023-02-27T13:03:54;0.90;;;0.70;;
23722;SDS011;12042;52.136;5.584;2023-02-27T13:06:30;1.05;;;0.93;;
23722;SDS011;12042;52.136;5.584;2023-02-27T13:09:43;7.47;;;1.20;;
23722;SDS011;12042;52.136;5.584;2023-02-27T13:14:58;1.88;;;1.00;;
23722;SDS011;12042;52.136;5.584;2023-02-27T13:23:14;1.77;;;1.10;;
23722;SDS011;12042;52.136;5.584;2023-02-27T13:26:25;1.60;;;1.00;;
23722;SDS011;12042;52.136;5.584;2023-02-27T13:28:55;1.23;;;1.10;;
23722;SDS011;12042;52.136;5.584;2023-02-27T13:34:12;1.48;;;1.10;;
23722;SDS011;12042;52.136;5.584;2023-02-27T13:36:40;2.00;;;0.90;;
23722;SDS011;12042;52.136;5.584;2023-02-27T13:42:04;1.52;;;0.90;;
23722;SDS011;12042;52.136;5.584;2023-02-27T13:44:49;0.88;;;0.70;;
23722;SDS011;12042;52.136;5.584;2023-02-27T13:50:00;1.33;;;0.85;;
23722;SDS011;12042;52.136;5.584;2023-02-27T13:52:28;0.75;;;0.75;;
23722;SDS011;12042;52.136;5.584;2023-02-27T13:54:59;1.95;;;0.90;;
23722;SDS011;12042;52.136;5.584;2023-02-27T13:57:25;2.72;;;0.90;;
23722;SDS011;12042;52.136;5.584;2023-02-27T13:59:53;1.40;;;1.20;;
23722;SDS011;12042;52.136;5.584;2023-02-27T14:02:40;3.05;;;1.00;;
23722;SDS011;12042;52.136;5.584;2023-02-27T14:10:28;2.30;;;1.00;;
23722;SDS011;12042;52.136;5.584;2023-02-27T14:12:56;1.67;;;1.20;;
23722;SDS011;12042;52.136;5.584;2023-02-27T14:17:50;1.77;;;1.00;;
23722;SDS011;12042;52.136;5.584;2023-02-27T14:25:42;2.33;;;1.00;;
23722;SDS011;12042;52.136;5.584;2023-02-27T14:28:31;2.30;;;1.23;;
23722;SDS011;12042;52.136;5.584;2023-02-27T14:30:59;3.67;;;1.77;;
23722;SDS011;12042;52.136;5.584;2023-02-27T14:33:43;1.95;;;1.40;;
23722;SDS011;12042;52.136;5.584;2023-02-27T14:39:02;2.83;;;1.02;;
23722;SDS011;12042;52.136;5.584;2023-02-27T14:43:59;1.27;;;1.00;;
23722;SDS011;12042;52.136;5.584;2023-02-27T14:46:27;1.58;;;0.95;;
23722;SDS011;12042;52.136;5.584;2023-02-27T14:48:57;1.95;;;1.30;;
23722;SDS011;12042;52.136;5.584;2023-02-27T14:51:33;1.60;;;1.10;;
23722;SDS011;12042;52.136;5.584;2023-02-27T14:59:29;3.08;;;1.15;;
23722;SDS011;12042;52.136;5.584;2023-02-27T15:02:03;1.90;;;1.20;;
23722;SDS011;12042;52.136;5.584;2023-02-27T15:04:42;2.00;;;1.40;;
23722;SDS011;12042;52.136;5.584;2023-02-27T15:07:15;3.22;;;1.40;;
23722;SDS011;12042;52.136;5.584;2023-02-27T15:10:16;2.20;;;1.20;;
23722;SDS011;12042;52.136;5.584;2023-02-27T15:12:56;1.25;;;0.90;;
23722;SDS011;12042;52.136;5.584;2023-02-27T15:15:26;2.05;;;1.00;;
23722;SDS011;12042;52.136;5.584;2023-02-27T15:17:52;1.95;;;0.93;;
23722;SDS011;12042;52.136;5.584;2023-02-27T15:20:23;1.80;;;0.88;;
23722;SDS011;12042;52.136;5.584;2023-02-27T15:22:58;2.33;;;1.17;;
23722;SDS011;12042;52.136;5.584;2023-02-27T15:25:36;1.95;;;1.40;;
23722;SDS011;12042;52.136;5.584;2023-02-27T15:28:04;3.60;;;2.10;;
23722;SDS011;12042;52.136;5.584;2023-02-27T15:30:54;3.10;;;1.10;;
23722;SDS011;12042;52.136;5.584;2023-02-27T15:33:23;3.30;;;1.40;;
23722;SDS011;12042;52.136;5.584;2023-02-27T15:36:18;1.45;;;1.23;;
23722;SDS011;12042;52.136;5.584;2023-02-27T15:44:04;3.40;;;1.40;;
23722;SDS011;12042;52.136;5.584;2023-02-27T15:46:29;3.92;;;1.27;;
23722;SDS011;12042;52.136;5.584;2023-02-27T15:48:57;1.52;;;1.20;;
23722;SDS011;12042;52.136;5.584;2023-02-27T15:51:24;2.80;;;1.00;;
23722;SDS011;12042;52.136;5.584;2023-02-27T15:53:53;2.17;;;1.20;;
23722;SDS011;12042;52.136;5.584;2023-02-27T15:56:24;2.83;;;1.17;;
23722;SDS011;12042;52.136;5.584;2023-02-27T15:58:55;4.32;;;1.35;;
23722;SDS011;12042;52.136;5.584;2023-02-27T16:01:23;1.95;;;1.05;;
23722;SDS011;12042;52.136;5.584;2023-02-27T16:03:57;1.27;;;0.90;;
23722;SDS011;12042;52.136;5.584;2023-02-27T16:06:34;2.58;;;1.33;;
23722;SDS011;12042;52.136;5.584;2023-02-27T16:09:20;1.00;;;1.00;;
23722;SDS011;12042;52.136;5.584;2023-02-27T16:12:08;1.25;;;1.10;;
23722;SDS011;12042;52.136;5.584;2023-02-27T16:15:08;1.40;;;1.00;;
23722;SDS011;12042;52.136;5.584;2023-02-27T16:20:35;1.52;;;1.10;;
23722;SDS011;12042;52.136;5.584;2023-02-27T16:23:17;5.50;;;1.60;;
23722;SDS011;12042;52.136;5.584;2023-02-27T16:26:01;4.28;;;1.33;;
23722;SDS011;12042;52.136;5.584;2023-02-27T16:28:28;4.18;;;1.40;;
23722;SDS011;12042;52.136;5.584;2023-02-27T16:30:55;2.17;;;1.40;;
23722;SDS011;12042;52.136;5.584;2023-02-27T16:33:21;2.92;;;1.10;;
23722;SDS011;12042;52.136;5.584;2023-02-27T16:35:48;2.45;;;1.30;;
23722;SDS011;12042;52.136;5.584;2023-02-27T16:38:27;1.60;;;1.50;;
23722;SDS011;12042;52.136;5.584;2023-02-27T16:43:26;2.20;;;1.05;;
23722;SDS011;12042;52.136;5.584;2023-02-27T16:45:51;1.38;;;1.17;;
23722;SDS011;12042;52.136;5.584;2023-02-27T16:48:20;1.75;;;1.30;;
23722;SDS011;12042;52.136;5.584;2023-02-27T16:50:50;2.35;;;1.40;;
23722;SDS011;12042;52.136;5.584;2023-02-27T16:53:28;1.67;;;1.10;;
23722;SDS011;12042;52.136;5.584;2023-02-27T16:55:54;2.08;;;1.45;;
23722;SDS011;12042;52.136;5.584;2023-02-27T16:58:20;3.95;;;1.40;;
23722;SDS011;12042;52.136;5.584;2023-02-27T17:00:45;2.45;;;1.63;;
23722;SDS011;12042;52.136;5.584;2023-02-27T17:03:11;1.42;;;1.05;;
23722;SDS011;12042;52.136;5.584;2023-02-27T17:05:38;1.90;;;1.15;;
23722;SDS011;12042;52.136;5.584;2023-02-27T17:08:05;2.80;;;1.45;;
23722;SDS011;12042;52.136;5.584;2023-02-27T17:10:31;3.08;;;1.40;;
23722;SDS011;12042;52.136;5.584;2023-02-27T17:12:57;1.85;;;1.58;;
23722;SDS011;12042;52.136;5.584;2023-02-27T17:15:23;2.58;;;2.00;;
23722;SDS011;12042;52.136;5.584;2023-02-27T17:17:51;1.63;;;1.52;;
23722;SDS011;12042;52.136;5.584;2023-02-27T17:20:17;2.22;;;1.50;;
23722;SDS011;12042;52.136;5.584;2023-02-27T17:22:43;1.92;;;1.50;;
23722;SDS011;12042;52.136;5.584;2023-02-27T17:25:09;5.47;;;2.78;;
23722;SDS011;12042;52.136;5.584;2023-02-27T17:27:35;4.97;;;1.80;;
23722;SDS011;12042;52.136;5.584;2023-02-27T17:30:01;2.58;;;1.83;;
23722;SDS011;12042;52.136;5.584;2023-02-27T17:32:27;4.40;;;2.00;;
23722;SDS011;12042;52.136;5.584;2023-02-27T17:34:53;3.78;;;1.98;;
23722;SDS011;12042;52.136;5.584;2023-02-27T17:37:19;2.90;;;1.92;;
23722;SDS011;12042;52.136;5.584;2023-02-27T17:39:45;1.88;;;1.63;;
23722;SDS011;12042;52.136;5.584;2023-02-27T17:42:16;2.03;;;1.83;;
23722;SDS011;12042;52.136;5.584;2023-02-27T17:44:45;3.60;;;1.73;;
23722;SDS011;12042;52.136;5.584;2023-02-27T17:47:18;2.75;;;1.67;;
23722;SDS011;12042;52.136;5.584;2023-02-27T17:49:45;3.40;;;1.80;;
23722;SDS011;12042;52.136;5.584;2023-02-27T17:52:11;4.00;;;2.30;;
23722;SDS011;12042;52.136;5.584;2023-02-27T17:54:37;2.90;;;2.20;;
23722;SDS011;12042;52.136;5.584;2023-02-27T17:57:03;8.05;;;3.95;;
23722;SDS011;12042;52.136;5.584;2023-02-27T17:59:30;5.13;;;3.30;;
23722;SDS011;12042;52.136;5.584;2023-02-27T18:01:57;3.00;;;2.70;;
23722;SDS011;12042;52.136;5.584;2023-02-27T18:04:23;4.63;;;3.25;;
23722;SDS011;12042;52.136;5.584;2023-02-27T18:06:49;4.47;;;3.88;;
23722;SDS011;12042;52.136;5.584;2023-02-27T18:09:17;3.95;;;3.55;;
23722;SDS011;12042;52.136;5.584;2023-02-27T18:11:43;4.75;;;2.67;;
23722;SDS011;12042;52.136;5.584;2023-02-27T18:14:09;2.97;;;2.75;;
23722;SDS011;12042;52.136;5.584;2023-02-27T18:16:38;5.22;;;2.88;;
23722;SDS011;12042;52.136;5.584;2023-02-27T18:19:04;8.27;;;3.13;;
23722;SDS011;12042;52.136;5.584;2023-02-27T18:21:34;2.63;;;2.17;;
23722;SDS011;12042;52.136;5.584;2023-02-27T18:24:00;3.05;;;2.40;;
23722;SDS011;12042;52.136;5.584;2023-02-27T18:26:29;3.40;;;2.63;;
23722;SDS011;12042;52.136;5.584;2023-02-27T18:28:59;4.78;;;2.33;;
23722;SDS011;12042;52.136;5.584;2023-02-27T18:31:37;5.38;;;3.05;;
23722;SDS011;12042;52.136;5.584;2023-02-27T18:34:13;5.18;;;3.85;;
23722;SDS011;12042;52.136;5.584;2023-02-27T18:36:40;6.47;;;4.43;;
23722;SDS011;12042;52.136;5.584;2023-02-27T18:39:10;3.42;;;3.20;;
23722;SDS011;12042;52.136;5.584;2023-02-27T18:41:43;5.57;;;3.70;;
23722;SDS011;12042;52.136;5.584;2023-02-27T18:44:10;3.47;;;3.17;;
23722;SDS011;12042;52.136;5.584;2023-02-27T18:46:44;3.20;;;2.90;;
23722;SDS011;12042;52.136;5.584;2023-02-27T18:49:10;3.58;;;2.80;;
23722;SDS011;12042;52.136;5.584;2023-02-27T18:51:36;2.72;;;2.53;;
23722;SDS011;12042;52.136;5.584;2023-02-27T18:54:05;7.00;;;4.50;;
23722;SDS011;12042;52.136;5.584;2023-02-27T18:56:35;6.22;;;5.30;;
23722;SDS011;12042;52.136;5.584;2023-02-27T18:59:13;4.93;;;4.20;;
23722;SDS011;12042;52.136;5.584;2023-02-27T19:05:11;4.00;;;3.30;;
23722;SDS011;12042;52.136;5.584;2023-02-27T19:07:54;4.55;;;2.78;;
23722;SDS011;12042;52.136;5.584;2023-02-27T19:13:18;2.47;;;2.28;;
23722;SDS011;12042;52.136;5.584;2023-02-27T19:15:44;3.55;;;2.20;;
23722;SDS011;12042;52.136;5.584;2023-02-27T19:18:21;3.55;;;2.40;;
23722;SDS011;12042;52.136;5.584;2023-02-27T19:20:51;4.68;;;2.08;;
23722;SDS011;12042;52.136;5.584;2023-02-27T19:23:20;2.50;;;2.10;;
23722;SDS011;12042;52.136;5.584;2023-02-27T19:25:59;3.35;;;2.90;;
23722;SDS011;12042;52.136;5.584;2023-02-27T19:28:25;5.03;;;3.53;;
23722;SDS011;12042;52.136;5.584;2023-02-27T19:30:57;4.15;;;3.03;;
23722;SDS011;12042;52.136;5.584;2023-02-27T19:33:26;4.90;;;3.13;;
23722;SDS011;12042;52.136;5.584;2023-02-27T19:36:13;4.53;;;3.00;;
23722;SDS011;12042;52.136;5.584;2023-02-27T19:38:47;4.10;;;3.20;;
23722;SDS011;12042;52.136;5.584;2023-02-27T19:41:14;3.55;;;3.05;;
23722;SDS011;12042;52.136;5.584;2023-02-27T19:43:41;4.47;;;2.90;;
23722;SDS011;12042;52.136;5.584;2023-02-27T19:46:08;5.75;;;4.20;;
23722;SDS011;12042;52.136;5.584;2023-02-27T19:48:36;3.05;;;2.60;;
23722;SDS011;12042;52.136;5.584;2023-02-27T19:51:06;3.90;;;2.78;;
23722;SDS011;12042;52.136;5.584;2023-02-27T19:53:34;3.25;;;2.80;;
23722;SDS011;12042;52.136;5.584;2023-02-27T19:56:01;3.17;;;2.80;;
23722;SDS011;12042;52.136;5.584;2023-02-27T19:58:29;6.32;;;3.50;;
23722;SDS011;12042;52.136;5.584;2023-02-27T20:00:55;4.03;;;3.28;;
23722;SDS011;12042;52.136;5.584;2023-02-27T20:03:22;3.90;;;2.83;;
23722;SDS011;12042;52.136;5.584;2023-02-27T20:05:47;4.20;;;3.90;;
23722;SDS011;12042;52.136;5.584;2023-02-27T20:08:14;3.40;;;3.10;;
23722;SDS011;12042;52.136;5.584;2023-02-27T20:10:41;4.40;;;2.60;;
23722;SDS011;12042;52.136;5.584;2023-02-27T20:13:07;4.15;;;2.50;;
23722;SDS011;12042;52.136;5.584;2023-02-27T20:15:36;2.97;;;2.33;;
23722;SDS011;12042;52.136;5.584;2023-02-27T20:18:03;4.38;;;2.53;;
23722;SDS011;12042;52.136;5.584;2023-02-27T20:20:29;2.38;;;2.17;;
23722;SDS011;12042;52.136;5.584;2023-02-27T20:22:55;3.72;;;2.45;;
23722;SDS011;12042;52.136;5.584;2023-02-27T20:25:22;2.95;;;2.42;;
23722;SDS011;12042;52.136;5.584;2023-02-27T20:27:47;2.85;;;2.65;;
23722;SDS011;12042;52.136;5.584;2023-02-27T20:30:13;3.03;;;2.83;;
23722;SDS011;12042;52.136;5.584;2023-02-27T20:32:40;5.40;;;2.92;;
23722;SDS011;12042;52.136;5.584;2023-02-27T20:35:05;2.85;;;2.10;;
23722;SDS011;12042;52.136;5.584;2023-02-27T20:37:31;3.78;;;2.38;;
23722;SDS011;12042;52.136;5.584;2023-02-27T20:39:59;3.92;;;2.50;;
23722;SDS011;12042;52.136;5.584;2023-02-27T20:42:25;3.45;;;2.00;;
23722;SDS011;12042;52.136;5.584;2023-02-27T20:44:53;2.17;;;1.90;;
23722;SDS011;12042;52.136;5.584;2023-02-27T20:47:22;2.97;;;2.13;;
23722;SDS011;12042;52.136;5.584;2023-02-27T20:49:48;2.70;;;2.10;;
23722;SDS011;12042;52.136;5.584;2023-02-27T20:52:23;3.72;;;2.25;;
23722;SDS011;12042;52.136;5.584;2023-02-27T20:54:49;3.53;;;2.42;;
23722;SDS011;12042;52.136;5.584;2023-02-27T20:57:14;3.95;;;2.03;;
23722;SDS011;12042;52.136;5.584;2023-02-27T20:59:40;3.75;;;1.95;;
23722;SDS011;12042;52.136;5.584;2023-02-27T21:02:08;1.90;;;1.75;;
23722;SDS011;12042;52.136;5.584;2023-02-27T21:04:34;1.80;;;1.70;;
23722;SDS011;12042;52.136;5.584;2023-02-27T21:07:08;2.08;;;1.80;;
23722;SDS011;12042;52.136;5.584;2023-02-27T21:09:37;4.00;;;1.90;;
23722;SDS011;12042;52.136;5.584;2023-02-27T21:12:06;7.53;;;2.30;;
23722;SDS011;12042;52.136;5.584;2023-02-27T21:14:32;2.83;;;1.80;;
23722;SDS011;12042;52.136;5.584;2023-02-27T21:16:58;2.53;;;2.10;;
23722;SDS011;12042;52.136;5.584;2023-02-27T21:19:24;3.78;;;2.20;;
23722;SDS011;12042;52.136;5.584;2023-02-27T21:21:49;3.72;;;2.03;;
23722;SDS011;12042;52.136;5.584;2023-02-27T21:24:15;6.13;;;2.40;;
23722;SDS011;12042;52.136;5.584;2023-02-27T21:26:41;3.72;;;2.78;;
23722;SDS011;12042;52.136;5.584;2023-02-27T21:29:08;3.67;;;2.20;;
23722;SDS011;12042;52.136;5.584;2023-02-27T21:31:42;2.67;;;2.47;;
23722;SDS011;12042;52.136;5.584;2023-02-27T21:34:13;4.57;;;2.35;;
23722;SDS011;12042;52.136;5.584;2023-02-27T21:36:42;2.42;;;2.22;;
23722;SDS011;12042;52.136;5.584;2023-02-27T21:39:11;2.83;;;2.33;;
23722;SDS011;12042;52.136;5.584;2023-02-27T21:41:39;4.22;;;2.20;;
23722;SDS011;12042;52.136;5.584;2023-02-27T21:44:06;2.17;;;2.00;;
23722;SDS011;12042;52.136;5.584;2023-02-27T21:46:35;5.05;;;2.35;;
23722;SDS011;12042;52.136;5.584;2023-02-27T21:49:00;3.63;;;2.55;;
23722;SDS011;12042;52.136;5.584;2023-02-27T21:51:26;5.03;;;3.13;;
23722;SDS011;12042;52.136;5.584;2023-02-27T21:53:55;5.15;;;2.50;;
23722;SDS011;12042;52.136;5.584;2023-02-27T21:56:26;5.07;;;3.45;;
23722;SDS011;12042;52.136;5.584;2023-02-27T21:58:52;6.30;;;3.13;;
23722;SDS011;12042;52.136;5.584;2023-02-27T22:01:19;7.78;;;3.55;;
23722;SDS011;12042;52.136;5.584;2023-02-27T22:03:47;6.05;;;3.47;;
23722;SDS011;12042;52.136;5.584;2023-02-27T22:06:15;7.10;;;3.83;;
23722;SDS011;12042;52.136;5.584;2023-02-27T22:08:42;10.50;;;4.10;;
23722;SDS011;12042;52.136;5.584;2023-02-27T22:11:08;6.18;;;3.60;;
